createdAt,value
2022-08-28T00:00:40.427Z,77.44
2022-08-28T00:03:13.529Z,77.26
2022-08-28T00:05:43.810Z,77.66
2022-08-28T00:08:14.220Z,78.07
2022-08-28T00:10:42.774Z,77.37
2022-08-28T00:13:18.795Z,77.37
2022-08-28T00:15:51.144Z,77.81
2022-08-28T00:18:19.811Z,77.74
2022-08-28T00:20:49.415Z,77.67
2022-08-28T00:23:17.804Z,77.70
2022-08-28T00:25:45.506Z,77.20
2022-08-28T00:28:23.966Z,77.67
2022-08-28T00:30:59.240Z,77.40
2022-08-28T00:33:34.319Z,78.22
2022-08-28T00:36:03.522Z,78.06
2022-08-28T00:38:32.575Z,78.62
2022-08-28T00:41:03.933Z,78.18
2022-08-28T00:43:43.802Z,78.20
2022-08-28T00:46:20.802Z,78.49
2022-08-28T00:48:49.984Z,78.23
2022-08-28T00:51:39.245Z,78.25
2022-08-28T00:54:08.470Z,78.56
2022-08-28T00:56:40.031Z,78.28
2022-08-28T00:59:16.069Z,78.22
2022-08-28T01:01:46.011Z,78.12
2022-08-28T01:04:18.904Z,78.05
2022-08-28T01:06:53.634Z,78.22
2022-08-28T01:09:30.928Z,78.18
2022-08-28T01:12:08.403Z,77.78
2022-08-28T01:14:40.556Z,77.04
2022-08-28T01:17:10.110Z,77.45
2022-08-28T01:19:48.439Z,77.72
2022-08-28T01:22:33.032Z,77.49
2022-08-28T01:25:03.893Z,77.34
2022-08-28T01:27:31.168Z,77.48
2022-08-28T01:29:58.498Z,78.44
2022-08-28T01:32:43.148Z,78.33
2022-08-28T01:35:16.443Z,77.59
2022-08-28T01:37:44.626Z,77.82
2022-08-28T01:40:18.309Z,78.07
2022-08-28T01:42:46.306Z,78.35
2022-08-28T01:45:17.910Z,78.53
2022-08-28T01:47:46.839Z,78.51
2022-08-28T01:50:19.199Z,78.32
2022-08-28T01:52:46.654Z,78.40
2022-08-28T01:55:14.530Z,78.78
2022-08-28T01:57:49.703Z,78.63
2022-08-28T02:00:18.552Z,78.86
2022-08-28T02:02:47.623Z,79.14
2022-08-28T02:05:15.307Z,79.08
2022-08-28T02:07:42.591Z,78.73
2022-08-28T02:10:12.053Z,79.18
2022-08-28T02:12:39.582Z,79.06
2022-08-28T02:15:08.617Z,78.89
2022-08-28T02:17:36.132Z,79.18
2022-08-28T02:20:05.759Z,79.60
2022-08-28T02:22:33.495Z,80.55
2022-08-28T02:25:01.093Z,81.48
2022-08-28T02:27:28.445Z,80.97
2022-08-28T02:29:55.822Z,80.77
2022-08-28T02:32:23.427Z,80.95
2022-08-28T02:34:50.672Z,81.17
2022-08-28T02:37:18.207Z,81.29
2022-08-28T02:39:45.796Z,81.14
2022-08-28T02:42:13.265Z,80.65
2022-08-28T02:44:42.686Z,80.90
2022-08-28T02:47:10.207Z,81.02
2022-08-28T02:49:38.013Z,81.44
2022-08-28T02:52:06.908Z,81.34
2022-08-28T02:54:35.644Z,80.95
2022-08-28T02:57:03.085Z,81.04
2022-08-28T02:59:30.381Z,80.82
2022-08-28T03:01:57.813Z,80.79
2022-08-28T03:04:25.079Z,81.09
2022-08-28T03:06:52.504Z,81.06
2022-08-28T03:09:20.571Z,81.50
2022-08-28T03:11:47.965Z,81.54
2022-08-28T03:14:15.229Z,81.52
2022-08-28T03:16:42.728Z,81.29
2022-08-28T03:19:10.139Z,81.47
2022-08-28T03:21:37.574Z,80.92
2022-08-28T03:24:05.124Z,80.96
2022-08-28T03:26:33.221Z,80.93
2022-08-28T03:29:02.995Z,80.84
2022-08-28T03:31:33.888Z,80.93
2022-08-28T03:34:01.150Z,81.00
2022-08-28T03:36:29.991Z,81.39
2022-08-28T03:39:01.281Z,82.90
2022-08-28T03:41:31.333Z,84.48
2022-08-28T03:44:01.043Z,85.24
2022-08-28T03:46:34.964Z,84.83
2022-08-28T03:49:04.442Z,85.62
2022-08-28T03:51:34.378Z,86.20
2022-08-28T03:54:04.163Z,87.14
2022-08-28T03:56:32.361Z,87.43
2022-08-28T03:59:05.306Z,87.50
2022-08-28T04:01:33.712Z,87.42
2022-08-28T04:04:01.127Z,88.48
2022-08-28T04:06:28.385Z,88.76
2022-08-28T04:09:00.239Z,89.02
2022-08-28T04:11:28.586Z,89.53
2022-08-28T04:13:56.798Z,89.71
2022-08-28T04:16:24.634Z,91.06
2022-08-28T04:18:51.955Z,90.46
2022-08-28T04:21:23.753Z,90.59
2022-08-28T04:23:51.878Z,90.71
2022-08-28T04:26:23.911Z,91.42
2022-08-28T04:28:53.851Z,91.51
2022-08-28T04:31:31.819Z,92.23
2022-08-28T04:34:03.057Z,92.03
2022-08-28T04:36:30.709Z,91.70
2022-08-28T04:38:59.375Z,91.56
2022-08-28T04:41:28.543Z,92.27
2022-08-28T04:43:57.536Z,92.24
2022-08-28T04:46:25.976Z,93.33
2022-08-28T04:48:54.001Z,93.21
2022-08-28T04:51:21.302Z,93.46
2022-08-28T04:53:48.631Z,94.09
2022-08-28T04:56:16.315Z,92.55
2022-08-28T04:58:45.595Z,92.69
2022-08-28T05:01:19.012Z,92.01
2022-08-28T05:03:48.492Z,92.56
2022-08-28T05:06:16.920Z,91.81
2022-08-28T05:08:44.319Z,91.10
2022-08-28T05:11:22.093Z,90.75
2022-08-28T05:14:04.523Z,91.34
2022-08-28T05:16:34.807Z,90.28
2022-08-28T05:19:03.665Z,90.53
2022-08-28T05:21:30.897Z,90.18
2022-08-28T05:23:59.302Z,89.46
2022-08-28T05:26:28.361Z,88.93
2022-08-28T05:28:59.715Z,88.63
2022-08-28T05:31:30.225Z,87.93
2022-08-28T05:34:00.141Z,87.65
2022-08-28T05:36:33.163Z,87.13
2022-08-28T05:39:06.021Z,86.56
2022-08-28T05:41:35.770Z,85.89
2022-08-28T05:44:07.894Z,84.82
2022-08-28T05:46:42.575Z,84.25
2022-08-28T05:49:11.155Z,83.38
2022-08-28T05:51:42.399Z,82.56
2022-08-28T05:54:09.955Z,81.67
2022-08-28T05:56:40.664Z,80.70
2022-08-28T05:59:10.372Z,80.21
2022-08-28T06:01:45.575Z,79.68
2022-08-28T06:04:27.457Z,78.64
2022-08-28T06:06:55.286Z,78.35
2022-08-28T06:09:29.993Z,77.26
2022-08-28T06:12:01.894Z,76.63
2022-08-28T06:14:31.373Z,76.02
2022-08-28T06:16:59.747Z,75.75
2022-08-28T06:19:31.038Z,75.73
2022-08-28T06:22:07.355Z,75.52
2022-08-28T06:24:36.410Z,75.36
2022-08-28T06:27:04.066Z,75.48
2022-08-28T06:29:31.468Z,74.61
2022-08-28T06:32:04.501Z,73.34
2022-08-28T06:34:32.243Z,70.94
2022-08-28T06:36:59.955Z,67.36
2022-08-28T06:39:27.334Z,64.26
2022-08-28T06:41:54.853Z,61.96
2022-08-28T06:44:22.992Z,60.02
2022-08-28T06:46:54.720Z,56.49
2022-08-28T06:49:23.481Z,53.46
2022-08-28T06:51:51.795Z,52.69
2022-08-28T06:54:22.953Z,54.63
2022-08-28T06:56:52.856Z,55.39
2022-08-28T06:59:20.399Z,52.68
2022-08-28T07:01:48.045Z,50.18
2022-08-28T07:04:15.901Z,53.45
2022-08-28T07:06:54.219Z,55.07
2022-08-28T07:09:24.362Z,57.49
2022-08-28T07:11:53.104Z,56.41
2022-08-28T07:14:20.897Z,51.84
2022-08-28T07:16:48.414Z,48.66
2022-08-28T07:19:25.307Z,47.54
2022-08-28T07:21:53.332Z,44.66
2022-08-28T07:24:21.068Z,45.45
2022-08-28T07:26:49.547Z,46.45
2022-08-28T07:29:19.276Z,45.86
2022-08-28T07:31:50.758Z,42.88
2022-08-28T07:34:21.301Z,40.08
2022-08-28T07:36:51.969Z,38.73
2022-08-28T07:39:21.010Z,36.31
2022-08-28T07:41:50.535Z,33.23
2022-08-28T07:44:41.071Z,31.92
2022-08-28T07:47:11.565Z,30.92
2022-08-28T07:49:40.293Z,30.24
2022-08-28T07:52:09.811Z,30.03
2022-08-28T07:54:40.590Z,28.22
2022-08-28T07:57:10.391Z,26.26
2022-08-28T07:59:38.731Z,26.25
2022-08-28T08:02:07.221Z,24.98
2022-08-28T08:04:35.406Z,23.29
2022-08-28T08:07:04.739Z,21.61
2022-08-28T08:09:37.383Z,21.36
2022-08-28T08:12:05.782Z,20.28
2022-08-28T08:14:33.287Z,19.60
2022-08-28T08:17:03.230Z,19.06
2022-08-28T08:19:35.659Z,18.60
2022-08-28T08:22:03.453Z,17.68
2022-08-28T08:24:30.785Z,16.94
2022-08-28T08:27:02.153Z,16.55
2022-08-28T08:29:37.267Z,16.45
2022-08-28T08:32:10.981Z,16.17
2022-08-28T08:34:42.444Z,15.55
2022-08-28T08:37:12.813Z,15.68
2022-08-28T08:39:43.251Z,15.22
2022-08-28T08:42:26.089Z,14.68
2022-08-28T08:44:57.709Z,15.84
2022-08-28T08:47:47.548Z,20.27
2022-08-28T08:50:29.849Z,20.48
2022-08-28T08:53:36.537Z,17.80
2022-08-28T08:56:06.337Z,16.66
2022-08-28T08:58:40.857Z,16.46
2022-08-28T09:02:01.767Z,16.76
2022-08-28T09:04:41.602Z,16.94
2022-08-28T09:07:19.967Z,19.94
2022-08-28T09:09:58.509Z,21.22
2022-08-28T09:12:35.198Z,20.27
2022-08-28T09:15:17.735Z,20.40
2022-08-28T09:19:19.396Z,21.60
2022-08-28T09:21:48.903Z,22.37
2022-08-28T09:24:29.968Z,21.60
2022-08-28T09:27:12.350Z,22.11
2022-08-28T09:29:43.469Z,22.18
2022-08-28T09:32:31.260Z,24.46
2022-08-28T09:35:24.399Z,20.65
2022-08-28T09:37:52.598Z,19.17
2022-08-28T09:40:52.671Z,22.88
2022-08-28T09:43:28.336Z,24.82
2022-08-28T09:46:18.638Z,27.04
2022-08-28T09:48:51.086Z,29.25
2022-08-28T09:51:21.298Z,31.16
2022-08-28T09:53:54.963Z,33.27
2022-08-28T09:56:40.019Z,33.92
2022-08-28T09:59:29.751Z,31.12
2022-08-28T10:02:20.002Z,27.69
2022-08-28T10:05:05.536Z,20.66
2022-08-28T10:07:51.484Z,18.25
2022-08-28T10:10:35.994Z,18.12
2022-08-28T10:13:19.260Z,22.24
2022-08-28T10:15:56.936Z,23.90
2022-08-28T10:18:47.247Z,22.00
2022-08-28T10:21:44.377Z,20.14
2022-08-28T10:24:44.317Z,20.67
2022-08-28T10:27:45.579Z,20.03
2022-08-28T10:30:21.799Z,24.01
2022-08-28T10:32:59.306Z,25.58
2022-08-28T10:35:53.230Z,26.05
2022-08-28T10:38:47.265Z,26.85
2022-08-28T10:41:59.371Z,27.70
2022-08-28T10:44:59.631Z,27.39
2022-08-28T10:47:29.782Z,24.70
2022-08-28T10:50:08.359Z,26.12
2022-08-28T10:52:47.856Z,29.38
2022-08-28T10:55:38.863Z,31.70
2022-08-28T10:58:24.009Z,33.48
2022-08-28T11:01:02.428Z,35.62
2022-08-28T11:03:40.538Z,36.16
2022-08-28T11:06:18.797Z,37.69
2022-08-28T11:08:55.089Z,39.74
2022-08-28T11:11:48.751Z,40.62
2022-08-28T11:14:32.349Z,41.35
2022-08-28T11:17:14.327Z,41.89
2022-08-28T11:20:24.948Z,43.23
2022-08-28T11:23:02.063Z,42.65
2022-08-28T11:26:02.106Z,43.81
2022-08-28T11:28:35.933Z,43.12
2022-08-28T11:31:07.664Z,42.06
2022-08-28T11:33:52.914Z,40.59
2022-08-28T11:36:23.247Z,37.92
2022-08-28T11:38:57.170Z,30.21
2022-08-28T11:41:31.326Z,32.01
2022-08-28T11:44:11.264Z,27.02
2022-08-28T11:46:45.304Z,27.47
2022-08-28T11:49:34.066Z,24.32
2022-08-28T11:52:29.787Z,25.58
2022-08-28T11:55:25.488Z,30.16
2022-08-28T11:58:29.427Z,33.27
2022-08-28T12:01:13.034Z,35.52
2022-08-28T12:03:55.086Z,37.05
2022-08-28T12:06:55.115Z,38.16
2022-08-28T12:09:50.323Z,39.62
2022-08-28T12:12:24.883Z,39.50
2022-08-28T12:15:07.953Z,39.59
2022-08-28T12:17:48.598Z,40.04
2022-08-28T12:20:34.973Z,41.15
2022-08-28T12:23:23.826Z,41.60
2022-08-28T12:26:02.992Z,42.32
2022-08-28T12:29:00.409Z,43.16
2022-08-28T12:31:55.093Z,43.85
2022-08-28T12:34:41.397Z,44.91
2022-08-28T12:37:51.240Z,45.56
2022-08-28T12:40:25.664Z,46.93
2022-08-28T12:43:15.142Z,48.94
2022-08-28T12:45:55.672Z,49.98
2022-08-28T12:48:29.563Z,51.81
2022-08-28T12:51:18.575Z,52.73
2022-08-28T12:53:55.475Z,54.25
2022-08-28T12:56:26.250Z,54.15
2022-08-28T12:58:53.694Z,56.91
2022-08-28T13:01:34.194Z,72.72
2022-08-28T13:04:21.974Z,75.87
2022-08-28T13:07:57.149Z,100.00
2022-08-28T13:11:50.162Z,100.00
2022-08-28T13:14:59.936Z,75.87
2022-08-28T13:18:53.715Z,100.00
2022-08-28T13:22:32.807Z,100.00
2022-08-28T13:25:08.179Z,75.87
2022-08-28T13:27:39.958Z,75.87
2022-08-28T13:30:20.173Z,75.87
2022-08-28T13:33:20.943Z,75.87
2022-08-28T13:35:50.407Z,100.00
2022-08-28T13:38:21.991Z,100.00
2022-08-28T13:40:59.698Z,100.00
2022-08-28T13:43:42.735Z,100.00
2022-08-28T13:46:10.584Z,100.00
2022-08-28T13:48:37.932Z,100.00
2022-08-28T13:51:14.224Z,100.00
2022-08-28T13:53:49.330Z,100.00
2022-08-28T13:56:17.958Z,100.00
2022-08-28T13:58:45.250Z,100.00
2022-08-28T14:01:45.407Z,100.00
2022-08-28T14:04:13.434Z,100.00
2022-08-28T14:06:44.146Z,100.00
2022-08-28T14:09:15.487Z,100.00
2022-08-28T14:11:46.753Z,100.00
2022-08-28T14:14:14.565Z,100.00
2022-08-28T14:16:45.104Z,100.00
2022-08-28T14:19:12.957Z,100.00
2022-08-28T14:21:41.429Z,100.00
2022-08-28T14:24:08.914Z,100.00
2022-08-28T14:26:37.038Z,100.00
2022-08-28T14:29:09.877Z,100.00
2022-08-28T14:31:41.010Z,100.00
2022-08-28T14:34:12.574Z,100.00
2022-08-28T14:36:41.987Z,100.00
2022-08-28T14:39:12.688Z,100.00
2022-08-28T14:41:46.980Z,100.00
2022-08-28T14:44:15.516Z,100.00
2022-08-28T14:46:45.840Z,100.00
2022-08-28T14:49:16.466Z,100.00
2022-08-28T14:51:46.251Z,100.00
2022-08-28T14:54:17.829Z,100.00
2022-08-28T14:56:47.842Z,100.00
2022-08-28T14:59:24.197Z,100.00
2022-08-28T15:01:55.699Z,100.00
2022-08-28T15:04:26.199Z,100.00
2022-08-28T15:07:00.403Z,100.00
2022-08-28T15:09:28.066Z,100.00
2022-08-28T15:11:55.587Z,100.00
2022-08-28T15:14:23.323Z,100.00
2022-08-28T15:16:51.196Z,100.00
2022-08-28T15:19:19.154Z,100.00
2022-08-28T15:21:51.386Z,100.00
2022-08-28T15:24:24.277Z,100.00
2022-08-28T15:26:51.810Z,100.00
2022-08-28T15:29:19.503Z,100.00
2022-08-28T15:31:50.565Z,100.00
2022-08-28T15:34:25.508Z,100.00
2022-08-28T15:36:56.144Z,100.00
2022-08-28T15:39:45.010Z,100.00
2022-08-28T15:42:13.352Z,100.00
2022-08-28T15:44:42.092Z,100.00
2022-08-28T15:47:10.079Z,100.00
2022-08-28T15:49:44.706Z,100.00
2022-08-28T15:52:18.772Z,100.00
2022-08-28T15:54:47.708Z,100.00
2022-08-28T15:57:16.171Z,100.00
2022-08-28T15:59:49.984Z,100.00
2022-08-28T16:02:24.477Z,100.00
2022-08-28T16:04:53.749Z,100.00
2022-08-28T16:07:23.394Z,100.00
2022-08-28T16:09:51.259Z,100.00
2022-08-28T16:12:18.768Z,100.00
2022-08-28T16:14:46.242Z,100.00
2022-08-28T16:17:13.563Z,100.00
2022-08-28T16:19:42.951Z,100.00
2022-08-28T16:22:12.847Z,100.00
2022-08-28T16:24:40.313Z,100.00
2022-08-28T16:27:11.804Z,100.00
2022-08-28T16:29:43.123Z,100.00
2022-08-28T16:32:11.695Z,100.00
2022-08-28T16:34:40.097Z,100.00
2022-08-28T16:37:07.999Z,100.00
2022-08-28T16:39:36.994Z,100.00
2022-08-28T16:42:05.155Z,100.00
2022-08-28T16:44:32.753Z,100.00
2022-08-28T16:47:00.183Z,100.00
2022-08-28T16:49:27.720Z,100.00
2022-08-28T16:51:54.991Z,100.00
2022-08-28T16:54:22.475Z,100.00
2022-08-28T16:56:50.067Z,100.00
2022-08-28T16:59:24.263Z,100.00
2022-08-28T17:01:52.924Z,100.00
2022-08-28T17:04:21.965Z,100.00
2022-08-28T17:06:49.724Z,100.00
2022-08-28T17:09:17.321Z,100.00
2022-08-28T17:11:51.598Z,100.00
2022-08-28T17:14:22.114Z,100.00
2022-08-28T17:16:50.595Z,100.00
2022-08-28T17:19:19.283Z,100.00
2022-08-28T17:22:05.724Z,100.00
2022-08-28T17:24:33.160Z,100.00
2022-08-28T17:27:05.442Z,100.00
2022-08-28T17:29:35.378Z,100.00
2022-08-28T17:32:05.325Z,100.00
2022-08-28T17:34:32.668Z,100.00
2022-08-28T17:37:00.030Z,100.00
2022-08-28T17:39:27.794Z,100.00
2022-08-28T17:41:55.398Z,100.00
2022-08-28T17:44:23.566Z,100.00
2022-08-28T17:47:09.660Z,100.00
2022-08-28T17:49:36.969Z,100.00
2022-08-28T17:52:05.499Z,100.00
2022-08-28T17:54:33.410Z,100.00
2022-08-28T17:57:01.386Z,100.00
2022-08-28T17:59:28.762Z,100.00
2022-08-28T18:01:56.170Z,100.00
2022-08-28T18:04:24.745Z,100.00
2022-08-28T18:06:54.651Z,100.00
2022-08-28T18:09:24.115Z,100.00
2022-08-28T18:11:52.658Z,100.00
2022-08-28T18:14:21.121Z,100.00
2022-08-28T18:16:48.654Z,100.00
2022-08-28T18:19:16.813Z,100.00
2022-08-28T18:21:45.021Z,100.00
2022-08-28T18:24:13.257Z,100.00
2022-08-28T18:26:42.871Z,100.00
2022-08-28T18:29:11.951Z,100.00
2022-08-28T18:31:40.075Z,100.00
2022-08-28T18:34:11.125Z,100.00
2022-08-28T18:36:44.017Z,100.00
2022-08-28T18:39:12.139Z,100.00
2022-08-28T18:41:43.937Z,100.00
2022-08-28T18:44:15.383Z,100.00
2022-08-28T18:46:44.282Z,100.00
2022-08-28T18:49:12.639Z,100.00
2022-08-28T18:51:43.592Z,100.00
2022-08-28T18:54:16.590Z,100.00
2022-08-28T18:56:45.919Z,100.00
2022-08-28T18:59:15.920Z,100.00
2022-08-28T19:01:43.480Z,100.00
2022-08-28T19:04:10.901Z,100.00
2022-08-28T19:06:38.638Z,100.00
2022-08-28T19:09:06.534Z,100.00
2022-08-28T19:11:35.945Z,100.00
2022-08-28T19:14:04.316Z,100.00
2022-08-28T19:16:32.534Z,100.00
2022-08-28T19:19:01.902Z,100.00
2022-08-28T19:21:30.253Z,100.00
2022-08-28T19:23:57.792Z,100.00
2022-08-28T19:26:27.376Z,100.00
2022-08-28T19:28:55.802Z,100.00
2022-08-28T19:31:26.331Z,100.00
2022-08-28T19:33:54.153Z,100.00
2022-08-28T19:36:21.938Z,100.00
2022-08-28T19:38:49.307Z,100.00
2022-08-28T19:41:17.047Z,100.00
2022-08-28T19:43:44.990Z,100.00
2022-08-28T19:46:20.135Z,100.00
2022-08-28T19:48:50.599Z,100.00
2022-08-28T19:51:23.084Z,100.00
2022-08-28T19:53:58.962Z,100.00
2022-08-28T19:56:30.462Z,100.00
2022-08-28T19:59:01.453Z,100.00
2022-08-28T20:01:33.386Z,100.00
2022-08-28T20:04:01.659Z,100.00
2022-08-28T20:06:32.845Z,100.00
2022-08-28T20:09:02.157Z,100.00
2022-08-28T20:11:30.726Z,100.00
2022-08-28T20:14:05.159Z,100.00
2022-08-28T20:16:38.098Z,100.00
2022-08-28T20:19:10.601Z,100.00
2022-08-28T20:21:42.136Z,100.00
2022-08-28T20:24:14.998Z,100.00
2022-08-28T20:26:42.664Z,100.00
2022-08-28T20:29:10.984Z,100.00
2022-08-28T20:31:41.470Z,100.00
2022-08-28T20:34:10.868Z,100.00
2022-08-28T20:36:38.727Z,100.00
2022-08-28T20:39:09.431Z,100.00
2022-08-28T20:41:40.205Z,100.00
2022-08-28T20:44:12.757Z,100.00
2022-08-28T20:46:42.144Z,100.00
2022-08-28T20:49:14.871Z,100.00
2022-08-28T20:51:56.409Z,100.00
2022-08-28T20:54:38.175Z,100.00
2022-08-28T20:57:10.794Z,100.00
2022-08-28T20:59:41.324Z,100.00
2022-08-28T21:02:31.547Z,100.00
2022-08-28T21:04:58.986Z,100.00
2022-08-28T21:07:26.967Z,100.00
2022-08-28T21:10:06.918Z,100.00
2022-08-28T21:12:40.337Z,100.00
2022-08-28T21:15:11.538Z,100.00
2022-08-28T21:17:40.581Z,100.00
2022-08-28T21:20:15.343Z,100.00
2022-08-28T21:22:43.023Z,100.00
2022-08-28T21:25:11.904Z,100.00
2022-08-28T21:27:39.599Z,100.00
2022-08-28T21:30:11.135Z,100.00
2022-08-28T21:32:38.723Z,100.00
2022-08-28T21:35:09.319Z,100.00
2022-08-28T21:37:40.971Z,100.00
2022-08-28T21:40:11.964Z,100.00
2022-08-28T21:42:40.325Z,100.00
2022-08-28T21:45:11.853Z,100.00
2022-08-28T21:47:41.259Z,100.00
2022-08-28T21:50:10.884Z,100.00
2022-08-28T21:52:38.859Z,100.00
2022-08-28T21:55:12.123Z,100.00
2022-08-28T21:57:39.787Z,100.00
2022-08-28T22:00:14.961Z,100.00
2022-08-28T22:02:42.505Z,100.00
2022-08-28T22:05:11.045Z,100.00
2022-08-28T22:07:38.643Z,100.00
2022-08-28T22:10:08.251Z,100.00
2022-08-28T22:12:35.755Z,100.00
2022-08-28T22:15:03.267Z,100.00
2022-08-28T22:17:30.787Z,100.00
2022-08-28T22:19:58.007Z,100.00
2022-08-28T22:22:43.881Z,100.00
2022-08-28T22:25:11.361Z,100.00
2022-08-28T22:27:38.633Z,100.00
2022-08-28T22:30:06.709Z,100.00
2022-08-28T22:32:34.188Z,100.00
2022-08-28T22:35:01.519Z,100.00
2022-08-28T22:37:28.865Z,100.00
2022-08-28T22:39:57.588Z,100.00
2022-08-28T22:42:25.955Z,100.00
2022-08-28T22:44:53.191Z,100.00
2022-08-28T22:47:21.628Z,100.00
2022-08-28T22:49:49.913Z,100.00
2022-08-28T22:52:17.913Z,100.00
2022-08-28T22:54:47.164Z,100.00
2022-08-28T22:57:20.763Z,100.00
2022-08-28T22:59:48.274Z,100.00
2022-08-28T23:02:18.442Z,100.00
2022-08-28T23:04:45.833Z,100.00
2022-08-28T23:07:19.632Z,100.00
2022-08-28T23:09:47.447Z,100.00
2022-08-28T23:12:14.882Z,100.00
2022-08-28T23:14:46.456Z,100.00
2022-08-28T23:17:16.923Z,100.00
2022-08-28T23:19:44.487Z,100.00
2022-08-28T23:22:14.759Z,100.00
2022-08-28T23:24:42.051Z,100.00
2022-08-28T23:27:32.398Z,100.00
2022-08-28T23:29:57.355Z,100.00
2022-08-28T23:32:25.239Z,100.00
2022-08-28T23:34:52.559Z,100.00
2022-08-28T23:37:20.355Z,100.00
2022-08-28T23:39:47.869Z,100.00
2022-08-28T23:42:15.078Z,100.00
2022-08-28T23:44:42.397Z,100.00
2022-08-28T23:47:09.957Z,100.00
2022-08-28T23:49:42.655Z,100.00
2022-08-28T23:52:10.557Z,100.00
2022-08-28T23:54:39.811Z,100.00
2022-08-28T23:57:08.793Z,100.00
2022-08-28T23:59:38.327Z,100.00
